D/T METAR WX W/SPE G/SPE TEMP DEWP FEEL
31/01/23 13:20 EGFF 311320Z AUTO 28014KT 9999 BKN031 09/06 Q1026 16.1mph 9°C 6°C 8.6°C
31/01/23 12:50 EGFF 311250Z AUTO 28015KT 9999 BKN033 10/06 Q1026 17.3mph 10°C 6°C 9.6°C
31/01/23 12:20 EGFF 311220Z AUTO 29014KT 9999 NCD 10/06 Q1026 16.1mph 10°C 6°C 9.6°C
31/01/23 07:50 EGFF 310750Z AUTO 27013KT 9999 BKN004 OVC009 09/08 Q1025 RERA REDZ 15.0mph 9°C 8°C 9.4°C
31/01/23 06:20 EGFF 310620Z AUTO 27014KT 9999 FEW004 BKN013 08/08 Q1025 16.1mph 8°C 8°C 8.4°C
30/01/23 22:20 EGFF 302220Z AUTO 28006KT 9999 NCD 06/04 Q1028 6.9mph 6°C 4°C 5.0°C
30/01/23 13:20 EGFF 301320Z AUTO 28009KT 9999 OVC033 09/05 Q1028 10.4mph 9°C 5°C 8.3°C
30/01/23 11:20 EGFF 301120Z AUTO 28009KT 9999 NCD 07/04 Q1028 10.4mph 7°C 4°C 6.0°C
30/01/23 10:50 EGFF 301050Z AUTO 27005KT 240V300 9999 SCT032 07/04 Q1028 5.8mph 7°C 4°C 6.0°C
30/01/23 09:50 EGFF 300950Z AUTO 29004KT 230V330 9999 NCD 06/04 Q1027 4.6mph 6°C 4°C 5.0°C
30/01/23 07:50 EGFF 300750Z AUTO 31010KT 9999 BKN031 05/03 Q1026 11.5mph 5°C 3°C 3.7°C
09/01/23 06:20 EGFF 090620Z AUTO 29019G30KT 9999 -RA FEW017 SCT022 BKN034 07/05 Q0996 -RA 21.9mph 34.5mph 7°C 5°C 6.3°C
09/01/23 05:50 EGFF 090550Z AUTO 28018G31KT 9999 -RA FEW016/// SCT022/// BKN029/// //////TCU 07/05 Q0995 -RA 20.7mph 35.7mph 7°C 5°C 6.3°C
09/01/23 05:20 EGFF 090520Z AUTO 28017KT 9999 FEW023 SCT028 OVC036 08/04 Q0995 19.6mph 8°C 4°C 7.0°C
09/01/23 04:50 EGFF 090450Z AUTO 29016KT 9999 FEW026 SCT033 BKN041 07/04 Q0995 18.4mph 7°C 4°C 6.0°C
09/01/23 04:20 EGFF 090420Z AUTO 29018KT 9999 -RA BKN024 BKN035 BKN043 07/04 Q0995 -RA 20.7mph 7°C 4°C 6.0°C
09/01/23 03:50 EGFF 090350Z AUTO 29014KT 9999 SCT025 BKN030 BKN039 07/04 Q0994 16.1mph 7°C 4°C 6.0°C
09/01/23 03:20 EGFF 090320Z AUTO 29014KT 9999 SCT032/// BKN043/// //////TCU 07/04 Q0994 16.1mph 7°C 4°C 6.0°C
09/01/23 02:50 EGFF 090250Z AUTO 29015KT 9999 NCD 07/04 Q0994 17.3mph 7°C 4°C 6.0°C
09/01/23 02:20 EGFF 090220Z AUTO 29014KT 9999 NCD 07/04 Q0993 16.1mph 7°C 4°C 6.0°C
09/01/23 01:20 EGFF 090120Z AUTO 28013KT 9999 SCT019 08/05 Q0992 15.0mph 8°C 5°C 7.3°C
09/01/23 00:50 EGFF 090050Z AUTO 28014KT 9999 SCT019 08/05 Q0992 16.1mph 8°C 5°C 7.3°C
09/01/23 00:20 EGFF 090020Z AUTO 28013KT 9999 FEW019/// //////TCU 07/05 Q0991 15.0mph 7°C 5°C 6.3°C
08/01/23 23:50 EGFF 082350Z AUTO 29013KT 9999 //////TCU 07/05 Q0990 15.0mph 7°C 5°C 6.3°C
08/01/23 23:20 EGFF 082320Z AUTO 29014KT 9999 -RA FEW023 SCT046 07/06 Q0990 -RA 16.1mph 7°C 6°C 6.6°C
08/01/23 22:50 EGFF 082250Z AUTO 30011KT 9999 FEW024 06/05 Q0989 12.7mph 6°C 5°C 5.3°C
08/01/23 22:20 EGFF 082220Z AUTO 30013KT 9999 FEW017 SCT023 06/05 Q0989 15.0mph 6°C 5°C 5.3°C
08/01/23 21:50 EGFF 082150Z AUTO 31015KT 9999 BKN019/// BKN023/// BKN030/// //////TCU 06/04 Q0988 RERA 17.3mph 6°C 4°C 5.0°C
08/01/23 20:20 EGFF 082020Z AUTO 23012KT 9000 -RA BKN020/// BKN028/// //////TCU 07/06 Q0985 -RA 13.8mph 7°C 6°C 6.6°C
08/01/23 19:20 EGFF 081920Z AUTO 20010KT 9999 FEW021/// BKN035/// OVC049/// //////TCU 07/04 Q0986 11.5mph 7°C 4°C 6.0°C
08/01/23 18:50 EGFF 081850Z AUTO 22012KT 9999 SCT027 BKN036 07/04 Q0986 13.8mph 7°C 4°C 6.0°C
08/01/23 18:20 EGFF 081820Z AUTO 21012KT 9999 FEW025/// SCT032/// //////TCU 07/04 Q0987 13.8mph 7°C 4°C 6.0°C
08/01/23 17:50 EGFF 081750Z AUTO 22014G24KT 9999 FEW032 07/04 Q0987 16.1mph 27.6mph 7°C 4°C 6.0°C
08/01/23 17:20 EGFF 081720Z AUTO 22012KT 9999 SCT040 07/04 Q0987 13.8mph 7°C 4°C 6.0°C
08/01/23 16:50 EGFF 081650Z AUTO 23011KT 9999 NCD 07/03 Q0988 12.7mph 7°C 3°C 5.7°C
08/01/23 16:20 EGFF 081620Z AUTO 24015KT 9999 BKN035 07/03 Q0988 17.3mph 7°C 3°C 5.7°C
08/01/23 15:50 EGFF 081550Z AUTO 25013KT 9999 BKN029 08/04 Q0988 15.0mph 8°C 4°C 7.0°C
08/01/23 15:20 EGFF 081520Z AUTO 26013G23KT 9999 SCT031 BKN045 07/03 Q0988 15.0mph 26.5mph 7°C 3°C 5.7°C
08/01/23 14:20 EGFF 081420Z AUTO 23013KT 9999 SCT020/// BKN028/// BKN044/// //////TCU 06/04 Q0988 RESHRA RERA RA 15.0mph 6°C 4°C 5.0°C
08/01/23 13:50 EGFF 081350Z AUTO 23012KT 9999 SCT024/// BKN032/// BKN044/// //////CB 07/05 Q0988 13.8mph 7°C 5°C 6.3°C
08/01/23 13:20 EGFF 081320Z AUTO 23011KT 9999 -RA SCT024 BKN040 08/05 Q0988 -RA 12.7mph 8°C 5°C 7.3°C
08/01/23 12:50 EGFF 081250Z AUTO 23012KT 9999 SCT031/// BKN039/// //////TCU 08/05 Q0988 13.8mph 8°C 5°C 7.3°C
08/01/23 12:20 EGFF 081220Z AUTO 24012KT 9999 FEW023/// BKN046/// //////CB 08/05 Q0988 13.8mph 8°C 5°C 7.3°C
08/01/23 11:20 EGFF 081120Z AUTO 22010KT 9999 BKN032 08/05 Q0989 11.5mph 8°C 5°C 7.3°C
08/01/23 10:50 EGFF 081050Z AUTO 21013KT 9999 SCT027/// BKN036/// //////CB 08/05 Q0989 15.0mph 8°C 5°C 7.3°C
08/01/23 10:20 EGFF 081020Z AUTO 21012KT 9999 SCT026/// OVC031/// //////TCU 08/05 Q0989 13.8mph 8°C 5°C 7.3°C
08/01/23 09:50 EGFF 080950Z AUTO 20012G23KT 170V230 9999 BKN026/// //////CB 08/05 Q0989 13.8mph 26.5mph 8°C 5°C 7.3°C
08/01/23 09:20 EGFF 080920Z AUTO 19013KT 9999 -RA FEW023/// BKN029/// BKN036/// //////TCU 08/06 Q0989 RERA -RA 15.0mph 8°C 6°C 7.6°C
08/01/23 08:50 EGFF 080850Z AUTO 18008KT 9999 FEW028 SCT048 08/05 Q0990 9.2mph 8°C 5°C 7.3°C
08/01/23 08:20 EGFF 080820Z AUTO 16007KT 130V190 9999 SCT026 08/05 Q0990 8.1mph 8°C 5°C 7.3°C
08/01/23 07:50 EGFF 080750Z AUTO 17008KT 9999 BKN023 07/05 Q0991 9.2mph 7°C 5°C 6.3°C
08/01/23 07:20 EGFF 080720Z AUTO 17009KT 9999 NCD 07/05 Q0991 10.4mph 7°C 5°C 6.3°C
08/01/23 06:50 EGFF 080650Z AUTO 20010KT 9999 SCT044 07/04 Q0992 11.5mph 7°C 4°C 6.0°C
08/01/23 06:20 EGFF 080620Z AUTO 21009KT 9999 NCD 07/05 Q0992 10.4mph 7°C 5°C 6.3°C
08/01/23 05:50 EGFF 080550Z AUTO 22008KT 190V260 9999 FEW019 SCT026 BKN042 07/05 Q0992 9.2mph 7°C 5°C 6.3°C
08/01/23 05:20 EGFF 080520Z AUTO 23009KT 9999 SCT028 BKN032 OVC039 07/05 Q0993 10.4mph 7°C 5°C 6.3°C
08/01/23 04:20 EGFF 080420Z AUTO 23009KT 9999 SCT040 BKN049 07/05 Q0993 10.4mph 7°C 5°C 6.3°C
08/01/23 03:50 EGFF 080350Z AUTO 24012KT 9999 -RA SCT034/// OVC040/// //////TCU 07/05 Q0993 -RA 13.8mph 7°C 5°C 6.3°C
08/01/23 03:20 EGFF 080320Z AUTO 25013KT 9999 -RA SCT022/// SCT029/// BKN034/// //////CB 07/05 Q0994 RERA -RA 15.0mph 7°C 5°C 6.3°C
08/01/23 02:50 EGFF 080250Z AUTO 22011KT 9999 BKN030/// BKN041/// //////CB 08/05 Q0993 12.7mph 8°C 5°C 7.3°C
08/01/23 02:20 EGFF 080220Z AUTO 22011KT 9999 FEW038/// //////CB 08/05 Q0993 12.7mph 8°C 5°C 7.3°C
08/01/23 01:20 EGFF 080120Z AUTO 23009KT 9999 BKN048 08/05 Q0993 10.4mph 8°C 5°C 7.3°C
08/01/23 00:20 EGFF 080020Z AUTO 24015G25KT 9999 -RA BKN034/// BKN041/// //////TCU 07/05 Q0994 RERA -RA 17.3mph 28.8mph 7°C 5°C 6.3°C
07/01/23 23:50 EGFF 072350Z AUTO 24015KT 9000 -RA FEW026/// BKN032/// //////TCU 08/05 Q0994 RERA -RA 17.3mph 8°C 5°C 7.3°C
07/01/23 23:20 EGFF 072320Z AUTO 23013KT 9999 FEW040/// //////CB 09/05 Q0994 15.0mph 9°C 5°C 8.3°C
07/01/23 22:50 EGFF 072250Z AUTO 22016G26KT 9999 SCT028/// BKN046/// //////TCU 09/05 Q0994 18.4mph 29.9mph 9°C 5°C 8.3°C
07/01/23 22:20 EGFF 072220Z AUTO 22016KT 9999 FEW029/// SCT041/// BKN048/// //////CB 09/05 Q0994 18.4mph 9°C 5°C 8.3°C
07/01/23 21:50 EGFF 072150Z AUTO 22014G24KT 9999 FEW030/// BKN045/// //////CB 09/05 Q0994 16.1mph 27.6mph 9°C 5°C 8.3°C
07/01/23 21:20 EGFF 072120Z AUTO 22013KT 9999 FEW031/// SCT045/// //////TCU 09/05 Q0994 15.0mph 9°C 5°C 8.3°C
07/01/23 20:50 EGFF 072050Z AUTO 22013KT 9999 SCT047 09/05 Q0994 15.0mph 9°C 5°C 8.3°C
07/01/23 20:20 EGFF 072020Z AUTO 22014KT 9999 BKN040 09/05 Q0994 16.1mph 9°C 5°C 8.3°C
07/01/23 19:50 EGFF 071950Z AUTO 23015KT 9999 BKN033 BKN046 08/05 Q0994 17.3mph 8°C 5°C 7.3°C
07/01/23 19:20 EGFF 071920Z AUTO 22015KT 9999 BKN040/// //////TCU 08/05 Q0994 17.3mph 8°C 5°C 7.3°C
07/01/23 18:50 EGFF 071850Z AUTO 22013KT 9999 BKN037 08/05 Q0994 15.0mph 8°C 5°C 7.3°C
07/01/23 18:20 EGFF 071820Z AUTO 23014KT 9999 -RA SCT032 BKN042 08/05 Q0994 -RA 16.1mph 8°C 5°C 7.3°C
07/01/23 17:50 EGFF 071750Z AUTO 23014KT 9999 SCT042 08/04 Q0994 16.1mph 8°C 4°C 7.0°C
07/01/23 16:50 EGFF 071650Z AUTO 25010KT 9999 NCD 07/04 Q0994 11.5mph 7°C 4°C 6.0°C
07/01/23 16:20 EGFF 071620Z AUTO 25018G29KT 9999 -RA SCT030 07/04 Q0993 -RA 20.7mph 33.4mph 7°C 4°C 6.0°C
07/01/23 15:50 EGFF 071550Z AUTO 24013KT 9999 NCD 09/05 Q0993 15.0mph 9°C 5°C 8.3°C
07/01/23 15:20 EGFF 071520Z AUTO 24011KT 9999 FEW033/// SCT048/// //////CB 08/06 Q0992 12.7mph 8°C 6°C 7.6°C
07/01/23 14:50 EGFF 071450Z 22009KT 9999 VCSH FEW029CB BKN035 09/06 Q0992 VCSH 10.4mph 9°C 6°C 8.6°C
07/01/23 13:50 EGFF 071350Z AUTO 22007KT 9999 -RA BKN028/// BKN034/// //////CB 10/07 Q0993 -RA 8.1mph 10°C 7°C 10.0°C
07/01/23 13:20 EGFF 071320Z AUTO 21013KT 9999 SCT041 10/06 Q0993 15.0mph 10°C 6°C 9.6°C
07/01/23 12:50 EGFF 071250Z AUTO 22011KT 9999 FEW033 BKN041 11/07 Q0993 12.7mph 11°C 7°C 11.0°C
07/01/23 12:20 EGFF 071220Z AUTO 22010KT 9999 FEW029 BKN035 11/07 Q0994 11.5mph 11°C 7°C 11.0°C
07/01/23 11:50 EGFF 071150Z AUTO 22010KT 9999 SCT033 10/07 Q0994 11.5mph 10°C 7°C 10.0°C
07/01/23 11:20 EGFF 071120Z AUTO 22011KT 9999 NCD 10/07 Q0994 12.7mph 10°C 7°C 10.0°C
07/01/23 10:20 EGFF 071020Z AUTO 22010KT 9999 NCD 10/08 Q0995 11.5mph 10°C 8°C 10.4°C
07/01/23 09:50 EGFF 070950Z AUTO 24011KT 9999 NCD 10/08 Q0995 12.7mph 10°C 8°C 10.4°C
07/01/23 09:20 EGFF 070920Z AUTO 29013KT 9999 SCT015/// SCT024/// BKN030/// //////CB 09/08 Q0995 RERA 15.0mph 9°C 8°C 9.4°C
07/01/23 08:50 EGFF 070850Z AUTO 27013KT 230V290 1300 R30/P1500N +RA SCT010/// BKN018/// BKN025/// //////CB 10/09 Q0995 +RA 15.0mph 10°C 9°C 10.8°C
07/01/23 08:20 EGFF 070820Z AUTO 20011G21KT 9999 -RA SCT021/// BKN029/// BKN035/// //////CB 11/09 Q0995 -RA 12.7mph 24.2mph 11°C 9°C 11.8°C
07/01/23 07:50 EGFF 070750Z AUTO 20013KT 9999 -RA BKN016/// OVC028/// //////TCU 11/09 Q0995 -RA 15.0mph 11°C 9°C 11.8°C
07/01/23 07:20 EGFF 070720Z AUTO 19014KT 9999 BKN018/// OVC034/// //////TCU 11/09 Q0995 16.1mph 11°C 9°C 11.8°C
07/01/23 06:50 EGFF 070650Z AUTO 19014KT 9999 -RA BKN016/// OVC027/// //////TCU 11/09 Q0995 -RA 16.1mph 11°C 9°C 11.8°C
07/01/23 06:20 EGFF 070620Z AUTO 19015KT 9999 BKN020/// //////TCU 11/09 Q0996 17.3mph 11°C 9°C 11.8°C